createdAt,value
2022-11-15T00:00:59.251Z,40.93
2022-11-15T00:03:28.282Z,37.13
2022-11-15T00:05:55.123Z,37.73
2022-11-15T00:08:21.740Z,38.70
2022-11-15T00:10:59.006Z,39.20
2022-11-15T00:13:25.688Z,37.13
2022-11-15T00:15:52.873Z,38.97
2022-11-15T00:18:19.744Z,39.30
2022-11-15T00:20:46.268Z,36.47
2022-11-15T00:23:13.070Z,39.23
2022-11-15T00:25:39.684Z,36.40
2022-11-15T00:28:06.221Z,39.10
2022-11-15T00:30:33.079Z,39.03
2022-11-15T00:33:04.185Z,36.53
2022-11-15T00:35:34.551Z,37.43
2022-11-15T00:38:01.929Z,37.40
2022-11-15T00:40:28.743Z,37.37
2022-11-15T00:42:55.300Z,38.70
2022-11-15T00:45:21.813Z,39.20
2022-11-15T00:47:48.430Z,38.57
2022-11-15T00:50:15.689Z,35.63
2022-11-15T00:52:42.517Z,38.00
2022-11-15T00:55:15.740Z,42.07
2022-11-15T00:57:42.437Z,37.23
2022-11-15T01:00:09.484Z,37.20
2022-11-15T01:02:36.125Z,37.17
2022-11-15T01:05:03.053Z,38.67
2022-11-15T01:07:29.685Z,38.77
2022-11-15T01:09:56.283Z,38.90
2022-11-15T01:12:22.801Z,35.97
2022-11-15T01:14:50.628Z,35.93
2022-11-15T01:17:17.173Z,37.33
2022-11-15T01:19:43.675Z,37.30
2022-11-15T01:22:10.207Z,39.47
2022-11-15T01:24:36.800Z,37.53
2022-11-15T01:27:03.364Z,37.60
2022-11-15T01:29:29.848Z,38.10
2022-11-15T01:31:56.413Z,35.17
2022-11-15T01:34:22.915Z,35.70
2022-11-15T01:36:49.449Z,36.77
2022-11-15T01:39:16.412Z,33.30
2022-11-15T01:41:42.938Z,35.27
2022-11-15T01:44:37.309Z,35.53
2022-11-15T01:47:17.277Z,32.83
2022-11-15T01:50:13.312Z,33.43
2022-11-15T01:52:41.479Z,32.77
2022-11-15T01:55:18.760Z,36.17
2022-11-15T01:57:49.709Z,32.77
2022-11-15T02:00:16.942Z,31.73
2022-11-15T02:02:44.040Z,33.33
2022-11-15T02:05:10.970Z,33.67
2022-11-15T02:07:37.794Z,33.63
2022-11-15T02:10:13.511Z,30.93
2022-11-15T02:12:41.444Z,31.93
2022-11-15T02:15:09.785Z,34.10
2022-11-15T02:18:03.864Z,34.77
2022-11-15T02:20:42.197Z,29.37
2022-11-15T02:23:11.378Z,30.33
2022-11-15T02:25:58.137Z,31.90
2022-11-15T02:29:00.972Z,32.20
2022-11-15T02:31:30.811Z,30.03
2022-11-15T02:34:13.574Z,30.57
2022-11-15T02:36:50.446Z,31.63
2022-11-15T02:39:28.216Z,30.83
2022-11-15T02:42:30.434Z,30.70
2022-11-15T02:44:59.776Z,28.83
2022-11-15T02:47:28.586Z,30.33
2022-11-15T02:49:58.377Z,31.27
2022-11-15T02:52:28.372Z,29.23
2022-11-15T02:54:57.229Z,29.47
2022-11-15T02:57:50.406Z,32.00
2022-11-15T03:00:19.383Z,32.60
2022-11-15T03:03:07.279Z,29.50
2022-11-15T03:05:52.494Z,29.73
2022-11-15T03:08:41.080Z,30.20
2022-11-15T03:11:12.396Z,28.23
2022-11-15T03:13:45.538Z,28.73
2022-11-15T03:16:18.836Z,27.17
2022-11-15T03:18:51.075Z,28.67
2022-11-15T03:21:20.615Z,29.50
2022-11-15T03:23:49.782Z,29.37
2022-11-15T03:26:20.397Z,31.47
2022-11-15T03:29:18.175Z,30.13
2022-11-15T03:31:51.385Z,27.83
2022-11-15T03:34:35.518Z,31.10
2022-11-15T03:37:02.797Z,31.60
2022-11-15T03:39:30.186Z,26.07
2022-11-15T03:42:24.532Z,29.53
2022-11-15T03:45:09.764Z,30.53
2022-11-15T03:47:41.539Z,32.00
2022-11-15T03:50:34.992Z,29.83
2022-11-15T03:53:01.635Z,30.77
2022-11-15T03:55:28.157Z,32.03
2022-11-15T03:57:58.787Z,33.17
2022-11-15T04:00:25.578Z,32.10
2022-11-15T04:02:52.104Z,28.77
2022-11-15T04:05:19.042Z,28.00
2022-11-15T04:07:45.567Z,29.20
2022-11-15T04:10:13.302Z,31.03
2022-11-15T04:12:44.081Z,31.27
2022-11-15T04:15:15.709Z,28.67
2022-11-15T04:17:44.677Z,29.23
2022-11-15T04:20:33.653Z,27.97
2022-11-15T04:23:20.472Z,28.83
2022-11-15T04:25:50.318Z,28.20
2022-11-15T04:28:16.845Z,28.23
2022-11-15T04:30:43.371Z,28.13
2022-11-15T04:33:10.010Z,30.50
2022-11-15T04:35:36.607Z,30.83
2022-11-15T04:38:05.424Z,28.07
2022-11-15T04:40:32.264Z,30.07
2022-11-15T04:43:03.635Z,34.17
2022-11-15T04:45:31.194Z,30.30
2022-11-15T04:47:57.704Z,30.00
2022-11-15T04:50:24.472Z,28.47
2022-11-15T04:52:53.429Z,31.03
2022-11-15T04:55:19.931Z,30.40
2022-11-15T04:57:46.787Z,32.10
2022-11-15T05:00:15.959Z,34.90
2022-11-15T05:03:01.163Z,34.93
2022-11-15T05:05:27.686Z,30.93
2022-11-15T05:07:54.212Z,35.23
2022-11-15T05:10:20.716Z,33.27
2022-11-15T05:12:48.162Z,35.07
2022-11-15T05:15:14.729Z,34.77
2022-11-15T05:17:41.287Z,34.60
2022-11-15T05:20:08.291Z,33.87
2022-11-15T05:22:34.865Z,33.77
2022-11-15T05:25:01.479Z,37.23
2022-11-15T05:27:28.102Z,35.80
2022-11-15T05:29:54.591Z,37.70
2022-11-15T05:32:21.926Z,36.63
2022-11-15T05:34:48.512Z,32.63
2022-11-15T05:37:15.471Z,37.23
2022-11-15T05:39:42.164Z,37.60
2022-11-15T05:42:15.157Z,34.83
2022-11-15T05:44:48.259Z,33.83
2022-11-15T05:47:20.603Z,37.30
2022-11-15T05:49:49.343Z,36.57
2022-11-15T05:52:20.429Z,34.33
2022-11-15T05:54:47.360Z,37.60
2022-11-15T05:57:13.935Z,34.57
2022-11-15T05:59:41.944Z,36.73
2022-11-15T06:02:08.517Z,33.93
2022-11-15T06:04:35.081Z,34.60
2022-11-15T06:07:01.691Z,34.43
2022-11-15T06:09:28.259Z,35.40
2022-11-15T06:11:54.803Z,35.10
2022-11-15T06:14:21.885Z,34.13
2022-11-15T06:16:48.466Z,36.33
2022-11-15T06:19:14.974Z,38.33
2022-11-15T06:21:41.571Z,34.27
2022-11-15T06:24:08.202Z,32.43
2022-11-15T06:26:34.710Z,39.73
2022-11-15T06:29:01.237Z,33.57
2022-11-15T06:31:27.738Z,34.40
2022-11-15T06:33:54.275Z,35.00
2022-11-15T06:36:21.745Z,33.80
2022-11-15T06:38:48.544Z,33.77
2022-11-15T06:41:15.710Z,32.77
2022-11-15T06:43:42.443Z,36.40
2022-11-15T06:46:09.321Z,35.13
2022-11-15T06:48:37.213Z,32.30
2022-11-15T06:51:05.125Z,34.87
2022-11-15T06:53:32.456Z,36.63
2022-11-15T06:56:02.636Z,35.37
2022-11-15T06:58:29.426Z,32.90
2022-11-15T07:01:03.026Z,35.23
2022-11-15T07:03:30.160Z,32.63
2022-11-15T07:06:02.806Z,32.40
2022-11-15T07:08:33.267Z,32.83
2022-11-15T07:11:02.728Z,31.50
2022-11-15T07:13:34.809Z,30.80
2022-11-15T07:16:06.626Z,31.70
2022-11-15T07:18:36.062Z,29.77
2022-11-15T07:21:04.448Z,31.87
2022-11-15T07:23:31.373Z,30.27
2022-11-15T07:25:59.373Z,29.00
2022-11-15T07:28:27.105Z,27.23
2022-11-15T07:30:53.887Z,30.60
2022-11-15T07:33:20.528Z,30.47
2022-11-15T07:35:50.316Z,31.20
2022-11-15T07:38:20.551Z,31.63
2022-11-15T07:40:47.930Z,28.27
2022-11-15T07:43:14.760Z,27.63
2022-11-15T07:45:45.897Z,28.60
2022-11-15T07:48:12.793Z,25.87
2022-11-15T07:50:42.318Z,27.40
2022-11-15T07:53:10.176Z,31.07
2022-11-15T07:55:37.424Z,29.00
2022-11-15T07:58:09.593Z,26.00
2022-11-15T08:00:37.123Z,25.30
2022-11-15T08:03:06.055Z,29.10
2022-11-15T08:05:33.675Z,26.57
2022-11-15T08:08:00.450Z,25.07
2022-11-15T08:10:28.319Z,24.13
2022-11-15T08:13:03.735Z,26.97
2022-11-15T08:15:31.257Z,26.27
2022-11-15T08:17:59.726Z,26.03
2022-11-15T08:20:27.685Z,27.90
2022-11-15T08:22:54.229Z,27.87
2022-11-15T08:25:20.760Z,25.13
2022-11-15T08:27:47.371Z,28.73
2022-11-15T08:30:14.753Z,29.00
2022-11-15T08:32:41.361Z,29.77
2022-11-15T08:35:08.448Z,28.70
2022-11-15T08:37:35.251Z,26.93
2022-11-15T08:40:01.910Z,24.50
2022-11-15T08:42:28.502Z,26.67
2022-11-15T08:44:54.987Z,24.17
2022-11-15T08:47:21.506Z,24.47
2022-11-15T08:49:48.284Z,24.53
2022-11-15T08:52:15.525Z,24.03
2022-11-15T08:54:42.089Z,24.27
2022-11-15T08:57:10.491Z,24.60
2022-11-15T08:59:37.671Z,25.20
2022-11-15T09:02:05.019Z,23.23
2022-11-15T09:04:31.591Z,24.20
2022-11-15T09:06:58.160Z,25.30
2022-11-15T09:09:24.682Z,23.83
2022-11-15T09:11:51.797Z,22.60
2022-11-15T09:14:18.362Z,24.60
2022-11-15T09:16:44.897Z,23.63
2022-11-15T09:19:12.021Z,25.50
2022-11-15T09:21:38.720Z,21.90
2022-11-15T09:24:05.604Z,22.37
2022-11-15T09:26:32.094Z,24.80
2022-11-15T09:28:58.652Z,28.90
2022-11-15T09:31:25.802Z,23.53
2022-11-15T09:33:52.350Z,21.10
2022-11-15T09:36:18.949Z,21.90
2022-11-15T09:38:45.491Z,21.57
2022-11-15T09:41:14.920Z,25.17
2022-11-15T09:43:56.409Z,24.50
2022-11-15T09:46:54.931Z,20.40
2022-11-15T09:49:22.427Z,21.37
2022-11-15T09:51:51.528Z,20.60
2022-11-15T09:54:54.906Z,21.10
2022-11-15T09:57:30.875Z,21.07
2022-11-15T10:00:44.287Z,19.03
2022-11-15T10:03:16.922Z,19.07
2022-11-15T10:06:03.954Z,19.00
2022-11-15T10:08:39.866Z,28.67
2022-11-15T10:11:36.026Z,20.60
2022-11-15T10:14:11.546Z,15.97
2022-11-15T10:17:07.324Z,21.77
2022-11-15T10:19:52.176Z,19.97
2022-11-15T10:22:27.725Z,17.50
2022-11-15T10:25:09.677Z,17.73
2022-11-15T10:27:36.997Z,19.17
2022-11-15T10:30:11.138Z,17.03
2022-11-15T10:32:37.992Z,17.20
2022-11-15T10:35:21.750Z,18.77
2022-11-15T10:37:48.467Z,16.83
2022-11-15T10:40:25.125Z,18.67
2022-11-15T10:43:15.472Z,19.73
2022-11-15T10:45:43.099Z,17.53
2022-11-15T10:48:12.689Z,18.93
2022-11-15T10:50:41.766Z,17.70
2022-11-15T10:53:32.187Z,19.10
2022-11-15T10:56:09.203Z,16.93
2022-11-15T10:58:40.075Z,16.47
2022-11-15T11:01:18.722Z,21.13
2022-11-15T11:03:59.406Z,17.93
2022-11-15T11:06:26.919Z,18.43
2022-11-15T11:09:01.500Z,18.50
2022-11-15T11:11:49.249Z,20.07
2022-11-15T11:14:28.747Z,15.80
2022-11-15T11:17:11.755Z,19.37
2022-11-15T11:19:48.022Z,18.47
2022-11-15T11:22:59.421Z,17.87
2022-11-15T11:25:31.060Z,16.03
2022-11-15T11:28:15.093Z,17.80
2022-11-15T11:31:19.186Z,18.13
2022-11-15T11:34:12.015Z,18.37
2022-11-15T11:36:51.715Z,17.00
2022-11-15T11:39:39.035Z,16.93
2022-11-15T11:42:29.827Z,17.10
2022-11-15T11:45:02.110Z,15.93
2022-11-15T11:47:34.780Z,16.90
2022-11-15T11:50:13.786Z,16.40
2022-11-15T11:52:59.536Z,15.67
2022-11-15T11:56:03.106Z,19.20
2022-11-15T11:58:42.549Z,15.57
2022-11-15T12:01:12.772Z,15.33
2022-11-15T12:03:46.696Z,17.90
2022-11-15T12:06:34.533Z,16.33
2022-11-15T12:09:21.922Z,17.00
2022-11-15T12:12:12.061Z,17.50
2022-11-15T12:14:44.900Z,16.03
2022-11-15T12:17:12.873Z,19.57
2022-11-15T12:19:41.403Z,16.67
2022-11-15T12:22:21.789Z,15.50
2022-11-15T12:24:57.480Z,15.63
2022-11-15T12:27:47.255Z,19.47
2022-11-15T12:30:19.869Z,16.43
2022-11-15T12:32:57.660Z,17.90
2022-11-15T12:35:30.753Z,15.37
2022-11-15T12:37:57.879Z,16.23
2022-11-15T12:40:36.700Z,17.40
2022-11-15T12:43:04.872Z,18.13
2022-11-15T12:45:43.781Z,14.93
2022-11-15T12:48:16.643Z,14.73
2022-11-15T12:50:55.413Z,14.93
2022-11-15T12:53:25.309Z,17.17
2022-11-15T12:56:12.970Z,18.17
2022-11-15T12:58:57.050Z,15.57
2022-11-15T13:01:36.353Z,14.00
2022-11-15T13:04:22.326Z,13.53
2022-11-15T13:06:52.953Z,13.10
2022-11-15T13:09:34.754Z,13.03
2022-11-15T13:12:02.917Z,12.23
2022-11-15T13:14:38.690Z,16.27
2022-11-15T13:17:35.701Z,14.50
2022-11-15T13:20:08.334Z,14.07
2022-11-15T13:22:53.458Z,13.37
2022-11-15T13:25:46.272Z,14.17
2022-11-15T13:28:12.744Z,14.30
2022-11-15T13:30:39.363Z,14.03
2022-11-15T13:33:16.266Z,13.73
2022-11-15T13:35:49.298Z,11.80
2022-11-15T13:38:28.016Z,12.33
2022-11-15T13:40:54.586Z,11.83
2022-11-15T13:43:24.055Z,11.20
2022-11-15T13:46:19.799Z,12.70
2022-11-15T13:48:53.568Z,11.13
2022-11-15T13:51:23.828Z,12.47
2022-11-15T13:53:56.781Z,12.70
2022-11-15T13:56:23.730Z,10.33
2022-11-15T13:58:50.549Z,11.57
2022-11-15T14:01:20.812Z,11.33
2022-11-15T14:04:00.143Z,14.47
2022-11-15T14:06:31.637Z,11.90
2022-11-15T14:08:59.900Z,13.27
2022-11-15T14:11:26.989Z,11.20
2022-11-15T14:14:05.767Z,11.27
2022-11-15T14:16:37.928Z,12.13
2022-11-15T14:19:06.351Z,12.57
2022-11-15T14:21:33.426Z,10.33
2022-11-15T14:24:19.873Z,12.10
2022-11-15T14:26:46.515Z,10.83
2022-11-15T14:29:28.804Z,11.87
2022-11-15T14:32:23.079Z,10.53
2022-11-15T14:34:55.661Z,11.37
2022-11-15T14:37:25.423Z,14.07
2022-11-15T14:39:53.126Z,16.00
2022-11-15T14:42:20.437Z,11.83
2022-11-15T14:44:47.981Z,16.57
2022-11-15T14:47:14.537Z,11.63
2022-11-15T14:49:41.764Z,13.13
2022-11-15T14:52:36.276Z,15.03
2022-11-15T14:55:10.278Z,13.50
2022-11-15T14:57:36.768Z,13.50
2022-11-15T15:00:06.322Z,12.57
2022-11-15T15:02:32.916Z,11.57
2022-11-15T15:05:02.153Z,10.80
2022-11-15T15:07:28.825Z,9.67
2022-11-15T15:10:11.376Z,11.07
2022-11-15T15:12:42.494Z,12.30
2022-11-15T15:15:18.037Z,12.30
2022-11-15T15:17:44.670Z,13.87
2022-11-15T15:20:11.895Z,11.13
2022-11-15T15:22:38.583Z,11.80
2022-11-15T15:25:22.859Z,9.33
2022-11-15T15:27:50.113Z,12.93
2022-11-15T15:30:16.853Z,10.10
2022-11-15T15:32:43.375Z,10.70
2022-11-15T15:35:15.291Z,11.07
2022-11-15T15:37:44.184Z,13.07
2022-11-15T15:40:21.097Z,10.63
2022-11-15T15:42:48.424Z,12.83
2022-11-15T15:45:15.994Z,13.43
2022-11-15T15:47:42.904Z,12.90
2022-11-15T15:50:18.491Z,10.47
2022-11-15T15:52:45.019Z,12.37
2022-11-15T15:55:11.718Z,10.40
2022-11-15T15:57:38.338Z,14.10
2022-11-15T16:00:06.287Z,11.83
2022-11-15T16:02:36.331Z,13.57
2022-11-15T16:05:07.738Z,11.07
2022-11-15T16:07:34.294Z,12.77
2022-11-15T16:10:01.303Z,10.57
2022-11-15T16:12:32.118Z,13.03
2022-11-15T16:14:59.339Z,12.43
2022-11-15T16:17:34.416Z,15.33
2022-11-15T16:20:01.421Z,12.60
2022-11-15T16:22:30.163Z,12.73
2022-11-15T16:24:57.574Z,13.87
2022-11-15T16:27:24.748Z,14.53
2022-11-15T16:29:51.384Z,14.83
2022-11-15T16:32:18.108Z,12.97
2022-11-15T16:34:48.756Z,14.20
2022-11-15T16:37:23.985Z,13.77
2022-11-15T16:39:51.211Z,14.73
2022-11-15T16:42:17.733Z,12.73
2022-11-15T16:44:45.007Z,12.90
2022-11-15T16:47:20.708Z,16.27
2022-11-15T16:49:47.648Z,14.37
2022-11-15T16:52:17.612Z,14.73
2022-11-15T16:54:46.748Z,12.13
2022-11-15T16:57:13.243Z,13.70
2022-11-15T16:59:39.854Z,14.00
2022-11-15T17:02:12.571Z,17.60
2022-11-15T17:04:39.534Z,13.50
2022-11-15T17:07:06.893Z,13.47
2022-11-15T17:09:34.338Z,13.27
2022-11-15T17:12:00.887Z,13.53
2022-11-15T17:14:27.518Z,14.13
2022-11-15T17:16:57.072Z,12.60
2022-11-15T17:19:23.571Z,11.57
2022-11-15T17:21:50.114Z,14.70
2022-11-15T17:24:17.334Z,12.30
2022-11-15T17:26:43.991Z,12.40
2022-11-15T17:29:10.700Z,11.60
2022-11-15T17:31:37.996Z,10.83
2022-11-15T17:34:06.095Z,12.03
2022-11-15T17:36:32.871Z,12.03
2022-11-15T17:39:00.118Z,12.50
2022-11-15T17:41:27.921Z,12.37
2022-11-15T17:43:58.008Z,11.67
2022-11-15T17:46:24.567Z,11.93
2022-11-15T17:48:51.128Z,14.33
2022-11-15T17:51:18.985Z,11.47
2022-11-15T17:53:47.427Z,12.53
2022-11-15T17:56:16.768Z,11.97
2022-11-15T17:58:57.661Z,12.03
2022-11-15T18:01:32.623Z,14.20
2022-11-15T18:04:01.978Z,15.33
2022-11-15T18:06:31.259Z,11.53
2022-11-15T18:08:58.366Z,12.90
2022-11-15T18:11:33.664Z,12.43
2022-11-15T18:14:04.586Z,12.60
2022-11-15T18:16:34.342Z,12.13
2022-11-15T18:19:01.202Z,12.03
2022-11-15T18:21:29.643Z,12.47
2022-11-15T18:23:59.565Z,11.63
2022-11-15T18:26:28.548Z,14.23
2022-11-15T18:28:57.308Z,12.50
2022-11-15T18:31:28.744Z,14.83
2022-11-15T18:33:58.178Z,13.70
2022-11-15T18:36:27.445Z,12.73
2022-11-15T18:38:56.138Z,12.40
2022-11-15T18:41:30.911Z,12.47
2022-11-15T18:44:01.050Z,11.70
2022-11-15T18:46:33.942Z,13.47
2022-11-15T18:49:02.626Z,13.70
2022-11-15T18:51:32.205Z,14.80
2022-11-15T18:54:01.137Z,13.87
2022-11-15T18:56:29.993Z,13.67
2022-11-15T18:58:58.450Z,13.40
2022-11-15T19:01:27.621Z,15.00
2022-11-15T19:03:56.470Z,19.37
2022-11-15T19:06:29.131Z,16.00
2022-11-15T19:08:58.255Z,15.20
2022-11-15T19:11:31.105Z,13.27
2022-11-15T19:14:03.165Z,17.03
2022-11-15T19:16:33.204Z,15.27
2022-11-15T19:19:03.008Z,14.33
2022-11-15T19:21:31.683Z,15.07
2022-11-15T19:23:59.906Z,15.80
2022-11-15T19:26:27.654Z,15.90
2022-11-15T19:28:59.435Z,17.83
2022-11-15T19:31:28.149Z,13.93
2022-11-15T19:33:55.839Z,14.83
2022-11-15T19:36:26.850Z,14.37
2022-11-15T19:38:54.221Z,14.10
2022-11-15T19:41:22.598Z,13.90
2022-11-15T19:43:52.739Z,15.33
2022-11-15T19:46:21.995Z,13.93
2022-11-15T19:48:48.663Z,16.20
2022-11-15T19:51:21.823Z,14.30
2022-11-15T19:53:49.995Z,14.57
2022-11-15T19:56:18.330Z,13.83
2022-11-15T19:58:45.946Z,16.67
2022-11-15T20:01:22.791Z,15.13
2022-11-15T20:03:51.201Z,14.50
2022-11-15T20:06:19.221Z,14.20
2022-11-15T20:08:46.983Z,13.30
2022-11-15T20:11:14.609Z,15.33
2022-11-15T20:13:42.213Z,16.03
2022-11-15T20:16:10.698Z,14.87
2022-11-15T20:18:37.652Z,15.60
2022-11-15T20:21:06.567Z,13.63
2022-11-15T20:23:33.598Z,14.83
2022-11-15T20:26:00.293Z,13.97
2022-11-15T20:28:28.754Z,14.60
2022-11-15T20:30:59.072Z,17.23
2022-11-15T20:33:27.340Z,15.30
2022-11-15T20:35:54.714Z,16.10
2022-11-15T20:38:22.047Z,17.63
2022-11-15T20:40:50.645Z,15.00
2022-11-15T20:43:19.913Z,15.03
2022-11-15T20:45:48.703Z,17.33
2022-11-15T20:48:16.506Z,15.73
2022-11-15T20:50:44.973Z,17.23
2022-11-15T20:53:14.820Z,17.03
2022-11-15T20:55:43.336Z,19.10
2022-11-15T20:58:11.169Z,17.90
2022-11-15T21:00:38.462Z,16.17
2022-11-15T21:03:09.029Z,16.80
2022-11-15T21:05:39.385Z,16.87
2022-11-15T21:08:07.149Z,16.40
2022-11-15T21:10:53.236Z,16.13
2022-11-15T21:13:20.650Z,19.03
2022-11-15T21:15:47.790Z,15.80
2022-11-15T21:18:15.035Z,16.40
2022-11-15T21:20:41.804Z,15.97
2022-11-15T21:23:09.220Z,15.67
2022-11-15T21:25:35.959Z,19.73
2022-11-15T21:28:03.027Z,17.17
2022-11-15T21:30:30.030Z,18.37
2022-11-15T21:32:56.666Z,16.07
2022-11-15T21:35:23.852Z,18.07
2022-11-15T21:37:56.076Z,20.67
2022-11-15T21:40:23.503Z,18.43
2022-11-15T21:42:50.068Z,17.80
2022-11-15T21:45:16.717Z,20.33
2022-11-15T21:47:46.142Z,17.73
2022-11-15T21:50:13.509Z,19.00
2022-11-15T21:52:40.890Z,17.50
2022-11-15T21:55:08.660Z,19.23
2022-11-15T21:57:35.296Z,18.53
2022-11-15T22:00:20.428Z,24.17
2022-11-15T22:02:47.047Z,18.83
2022-11-15T22:05:13.640Z,17.23
2022-11-15T22:07:40.178Z,19.87
2022-11-15T22:10:06.992Z,20.50
2022-11-15T22:12:33.656Z,20.00
2022-11-15T22:15:00.231Z,21.53
2022-11-15T22:17:46.897Z,20.70
2022-11-15T22:20:37.611Z,19.70
2022-11-15T22:23:01.665Z,19.70
2022-11-15T22:25:28.579Z,21.53
2022-11-15T22:27:55.133Z,20.00
2022-11-15T22:30:22.644Z,17.60
2022-11-15T22:32:49.270Z,18.10
2022-11-15T22:35:16.118Z,17.87
2022-11-15T22:37:42.935Z,21.63
2022-11-15T22:40:10.076Z,19.07
2022-11-15T22:42:36.600Z,21.73
2022-11-15T22:45:03.637Z,18.23
2022-11-15T22:47:30.185Z,18.53
2022-11-15T22:49:56.670Z,18.50
2022-11-15T22:52:23.387Z,19.20
2022-11-15T22:54:49.958Z,19.33
2022-11-15T22:57:16.482Z,20.13
2022-11-15T22:59:43.071Z,20.07
2022-11-15T23:02:09.605Z,19.23
2022-11-15T23:04:36.146Z,21.10
2022-11-15T23:07:02.899Z,22.07
2022-11-15T23:09:29.530Z,20.33
2022-11-15T23:12:14.807Z,19.10
2022-11-15T23:14:41.419Z,18.93
2022-11-15T23:17:07.903Z,18.87
2022-11-15T23:19:34.539Z,19.17
2022-11-15T23:22:19.410Z,20.77
2022-11-15T23:24:46.566Z,18.13
2022-11-15T23:27:15.585Z,19.50
2022-11-15T23:30:00.553Z,18.23
2022-11-15T23:32:45.587Z,20.07
2022-11-15T23:35:12.592Z,19.87
2022-11-15T23:37:39.255Z,22.87
2022-11-15T23:40:06.535Z,21.20
2022-11-15T23:42:33.055Z,20.73
2022-11-15T23:44:59.608Z,19.90
2022-11-15T23:47:26.287Z,20.10
2022-11-15T23:49:52.807Z,20.33
2022-11-15T23:52:19.361Z,19.57
2022-11-15T23:54:45.948Z,20.37
2022-11-15T23:57:12.536Z,19.73
2022-11-15T23:59:40.174Z,20.43
